CFG329 EDLW-EDDS
Flight info
| Callsign | CFG329 |
|---|---|
| Flight time | N/A |
| Altitude | 23000 |
| Route | GMH8Q GMH Z841 BIGSU L603 BOMBI N850 RINEX Z818 UBEGA/N0337F110 Z818 ETASA DCT NOSBU T726 LBU |
| Aircraft | A320/M-SDE3FGHIRWY/LB1 |
Departure
| Time | 2026-04-29 14:49 |
|---|---|
| Airport | Dortmund Airport (EDLW) |
Arrival
| Time | N/A |
|---|---|
| Airport | Stuttgart Airport (EDDS) |
| Time | Latitude | Longitude | Altitude | Speed | Heading |
|---|---|---|---|---|---|
| 2026-04-29 14:19 | 51.51562 | 7.61242 | 423 ft | 0 kts | 325° |
| 2026-04-29 14:35 | 51.51589 | 7.61169 | 428 ft | 7 kts | 288° |
| 2026-04-29 14:35 | 51.51587 | 7.61078 | 429 ft | 8 kts | 253° |
| 2026-04-29 14:35 | 51.51564 | 7.60986 | 425 ft | 9 kts | 245° |
| 2026-04-29 14:36 | 51.51539 | 7.60908 | 423 ft | 8 kts | 242° |
| 2026-04-29 14:36 | 51.51511 | 7.60828 | 425 ft | 8 kts | 240° |
| 2026-04-29 14:36 | 51.51491 | 7.60770 | 423 ft | 10 kts | 241° |
| 2026-04-29 14:36 | 51.51475 | 7.60724 | 418 ft | 0 kts | 241° |
| 2026-04-29 14:43 | 51.51466 | 7.60696 | 422 ft | 5 kts | 241° |
| 2026-04-29 14:43 | 51.51453 | 7.60660 | 419 ft | 4 kts | 241° |
| 2026-04-29 14:43 | 51.51429 | 7.60589 | 423 ft | 9 kts | 240° |
| 2026-04-29 14:44 | 51.51428 | 7.60586 | 424 ft | 0 kts | 240° |
| 2026-04-29 14:45 | 51.51427 | 7.60585 | 424 ft | 1 kts | 240° |
| 2026-04-29 14:45 | 51.51412 | 7.60541 | 423 ft | 5 kts | 239° |
| 2026-04-29 14:45 | 51.51392 | 7.60488 | 428 ft | 7 kts | 239° |
| 2026-04-29 14:45 | 51.51389 | 7.60478 | 424 ft | 0 kts | 239° |
| 2026-04-29 14:46 | 51.51361 | 7.60338 | 427 ft | 18 kts | 290° |
| 2026-04-29 14:46 | 51.51470 | 7.60240 | 422 ft | 20 kts | 16° |
| 2026-04-29 14:46 | 51.51506 | 7.60297 | 416 ft | 0 kts | 56° |
| 2026-04-29 14:48 | 51.51514 | 7.60315 | 417 ft | 9 kts | 56° |
| 2026-04-29 14:48 | 51.51699 | 7.60824 | 420 ft | 87 kts | 61° |
| 2026-04-29 14:49 | 51.51942 | 7.61530 | 414 ft | 126 kts | 61° |
| 2026-04-29 14:49 | 51.52090 | 7.61955 | 465 ft | 136 kts | 61° |
| 2026-04-29 14:49 | 51.52810 | 7.63965 | 1656 ft | 129 kts | 64° |